Time;durP1;ratioP1;P1;durP2;ratioP2;P2;SDS_P1;SDS_P2;PMS_P1;PMS_P2;Temp;Humidity;BMP_temperature;BMP_pressure;BME280_temperature;BME280_humidity;BME280_pressure;Samples;Min_cycle;Max_cycle;Signal;HPM_P1;HPM_P2
2021/05/26 01:23:33;;;;;;;6.55;5.43;;;17.40;92.70;;;;;;5048186;28;20198;-73
2021/05/26 01:26:01;;;;;;;8.80;6.15;;;17.40;93.10;;;;;;5061126;28;20233;-73
2021/05/26 01:28:28;;;;;;;5.95;5.55;;;17.30;94.20;;;;;;5053896;28;20211;-74
2021/05/26 01:30:55;;;;;;;6.13;5.63;;;17.20;94.00;;;;;;5046447;28;20191;-74
2021/05/26 01:33:21;;;;;;;6.55;6.00;;;17.10;94.30;;;;;;5046132;28;20188;-74
2021/05/26 01:35:48;;;;;;;6.13;5.50;;;17.10;94.20;;;;;;5049517;28;20186;-72
2021/05/26 01:38:18;;;;;;;6.75;6.15;;;17.10;94.40;;;;;;5054663;28;20193;-72
2021/05/26 01:40:45;;;;;;;5.80;5.47;;;17.10;94.40;;;;;;5045342;28;20218;-73
2021/05/26 01:43:12;;;;;;;7.53;5.85;;;17.10;94.10;;;;;;5048643;28;20560;-72
2021/05/26 01:45:37;;;;;;;9.00;5.57;;;17.20;94.40;;;;;;5048215;28;20183;-72
2021/05/26 01:48:04;;;;;;;6.18;5.65;;;17.20;94.20;;;;;;5048922;28;20180;-74
2021/05/26 01:50:30;;;;;;;5.90;5.43;;;17.20;94.50;;;;;;5055576;28;20187;-73
2021/05/26 01:52:59;;;;;;;5.88;5.47;;;17.20;94.10;;;;;;5054881;28;20176;-73
2021/05/26 01:55:26;;;;;;;5.88;5.47;;;17.20;94.20;;;;;;5055292;28;20184;-73
2021/05/26 01:57:53;;;;;;;6.18;5.68;;;17.20;94.40;;;;;;5050001;28;20180;-72
2021/05/26 02:00:20;;;;;;;5.80;5.40;;;17.10;94.30;;;;;;5050144;28;20218;-74
2021/05/26 02:02:47;;;;;;;4.97;4.68;;;17.20;93.90;;;;;;5054702;28;20579;-73
2021/05/26 02:05:13;;;;;;;5.35;4.95;;;17.20;93.80;;;;;;5050843;28;20190;-73
2021/05/26 02:07:39;;;;;;;6.03;5.40;;;17.20;94.10;;;;;;5053260;28;20692;-72
2021/05/26 02:10:07;;;;;;;6.15;5.60;;;17.20;94.30;;;;;;5044875;28;20274;-74
2021/05/26 02:12:33;;;;;;;6.97;5.30;;;17.10;94.40;;;;;;5055615;28;20237;-74
2021/05/26 02:15:00;;;;;;;6.30;5.60;;;17.10;94.40;;;;;;5047614;28;20195;-74
2021/05/26 02:17:26;;;;;;;5.53;5.13;;;17.10;94.80;;;;;;5048262;28;20271;-75
2021/05/26 02:19:52;;;;;;;5.65;5.15;;;17.10;94.20;;;;;;5043527;28;20241;-75
2021/05/26 02:22:19;;;;;;;6.13;5.45;;;17.10;94.10;;;;;;5048178;28;20192;-75
2021/05/26 02:24:45;;;;;;;6.20;5.18;;;17.10;94.00;;;;;;5046438;28;20171;-75
2021/05/26 02:27:12;;;;;;;5.00;4.80;;;17.20;93.90;;;;;;5050096;28;20188;-75
2021/05/26 02:29:38;;;;;;;5.15;4.90;;;17.10;94.00;;;;;;5049925;28;20681;-75
2021/05/26 02:32:06;;;;;;;5.18;4.78;;;17.20;93.80;;;;;;5051212;28;20183;-76
2021/05/26 02:34:32;;;;;;;4.82;4.43;;;17.10;93.50;;;;;;5047739;28;20190;-75
2021/05/26 02:36:58;;;;;;;5.63;5.20;;;17.10;93.50;;;;;;5047293;28;20183;-75
2021/05/26 02:39:24;;;;;;;5.00;4.75;;;17.10;93.40;;;;;;5047211;28;20183;-75
2021/05/26 02:41:49;;;;;;;4.88;4.57;;;17.10;93.50;;;;;;5049111;28;20204;-75
2021/05/26 02:44:15;;;;;;;5.07;4.78;;;17.10;93.80;;;;;;5048878;28;20180;-75
2021/05/26 02:46:41;;;;;;;5.35;5.05;;;17.10;94.00;;;;;;5045125;28;20187;-75
2021/05/26 02:49:07;;;;;;;7.30;5.45;;;17.10;94.10;;;;;;5044251;28;22152;-75
2021/05/26 02:51:34;;;;;;;5.43;5.00;;;17.10;94.30;;;;;;5048738;28;20257;-75
2021/05/26 02:54:01;;;;;;;6.40;4.60;;;17.10;94.10;;;;;;5047801;28;20564;-75
2021/05/26 02:56:26;;;;;;;5.97;5.43;;;17.10;93.90;;;;;;5047535;28;20205;-75
2021/05/26 02:58:53;;;;;;;6.05;5.55;;;17.10;93.90;;;;;;5047754;28;20215;-75
2021/05/26 03:01:18;;;;;;;5.07;4.65;;;17.10;94.20;;;;;;5045068;28;20211;-75
2021/05/26 03:03:45;;;;;;;6.07;5.15;;;17.10;94.10;;;;;;5047028;28;20557;-75
2021/05/26 03:06:11;;;;;;;5.25;4.85;;;17.10;94.10;;;;;;5047785;28;20180;-75
2021/05/26 03:08:36;;;;;;;5.53;4.93;;;17.10;94.10;;;;;;5046695;28;20183;-75
2021/05/26 03:11:03;;;;;;;5.68;5.05;;;17.10;94.50;;;;;;5050000;28;20191;-75
2021/05/26 03:13:28;;;;;;;5.30;4.97;;;17.10;94.10;;;;;;5046214;28;20286;-75
2021/05/26 03:15:54;;;;;;;5.70;5.30;;;17.10;94.30;;;;;;5046231;28;20265;-76
2021/05/26 03:18:21;;;;;;;6.28;5.20;;;17.10;94.20;;;;;;5042007;28;20723;-75
2021/05/26 03:20:48;;;;;;;5.65;5.25;;;17.10;94.20;;;;;;5041689;28;20827;-75
2021/05/26 03:23:14;;;;;;;5.80;5.40;;;17.10;94.80;;;;;;5047181;28;20180;-76
2021/05/26 03:25:40;;;;;;;6.38;4.72;;;17.10;94.70;;;;;;5040599;28;20191;-76
2021/05/26 03:28:06;;;;;;;5.72;5.30;;;17.10;94.40;;;;;;5046615;28;20187;-71
2021/05/26 03:30:33;;;;;;;6.18;5.65;;;17.20;94.60;;;;;;5046295;28;20730;-71
2021/05/26 03:33:00;;;;;;;6.65;6.10;;;17.20;94.90;;;;;;5048939;28;20179;-71
2021/05/26 03:35:26;;;;;;;6.50;5.90;;;17.20;95.20;;;;;;5044029;28;20202;-72
2021/05/26 03:37:53;;;;;;;7.25;6.57;;;17.20;95.40;;;;;;5043747;28;20213;-72
2021/05/26 03:40:19;;;;;;;6.22;5.82;;;17.20;95.10;;;;;;5044306;28;20692;-73
2021/05/26 03:42:46;;;;;;;7.43;6.88;;;17.20;95.50;;;;;;5038594;28;20185;-72
2021/05/26 03:45:13;;;;;;;7.05;6.40;;;17.10;95.80;;;;;;5043965;28;20183;-72
2021/05/26 03:47:39;;;;;;;6.72;6.22;;;17.10;95.70;;;;;;5049984;28;20258;-72
2021/05/26 03:50:06;;;;;;;7.20;6.70;;;17.10;95.80;;;;;;5052527;28;20194;-72
2021/05/26 03:52:33;;;;;;;6.45;6.00;;;17.10;95.90;;;;;;5054086;28;20187;-72
2021/05/26 03:54:58;;;;;;;7.55;6.85;;;17.00;96.40;;;;;;5051358;28;20183;-72
2021/05/26 03:57:24;;;;;;;9.48;7.18;;;17.00;96.60;;;;;;5051621;28;20230;-72
2021/05/26 03:59:50;;;;;;;7.43;6.70;;;17.00;96.40;;;;;;5045492;28;20211;-72
2021/05/26 04:02:15;;;;;;;6.78;6.22;;;17.00;96.80;;;;;;5048121;28;20829;-74
2021/05/26 04:04:41;;;;;;;7.53;6.80;;;17.00;96.50;;;;;;5047699;28;20622;-73
2021/05/26 04:07:08;;;;;;;7.30;6.57;;;17.00;96.70;;;;;;5045615;28;20271;-72
2021/05/26 04:09:34;;;;;;;9.90;6.80;;;17.00;96.90;;;;;;5046350;28;20179;-73
2021/05/26 04:11:59;;;;;;;7.20;6.60;;;17.00;96.60;;;;;;5046230;28;20195;-72
2021/05/26 04:14:25;;;;;;;7.22;6.63;;;17.10;96.40;;;;;;5049631;28;20187;-73
2021/05/26 04:16:51;;;;;;;8.75;7.68;;;17.10;96.50;;;;;;5047977;28;20206;-73
2021/05/26 04:19:17;;;;;;;9.68;6.95;;;17.10;96.40;;;;;;5045558;28;20190;-72
2021/05/26 04:21:43;;;;;;;7.47;6.68;;;17.10;96.90;;;;;;5057490;28;20602;-72
2021/05/26 04:24:09;;;;;;;6.25;5.70;;;17.10;96.80;;;;;;5059578;28;20264;-73
2021/05/26 04:26:36;;;;;;;9.93;6.07;;;17.10;96.50;;;;;;5049047;28;20184;-73
2021/05/26 04:29:02;;;;;;;9.13;4.95;;;17.10;95.90;;;;;;5049887;28;20180;-73
2021/05/26 04:31:28;;;;;;;6.43;5.25;;;17.00;95.90;;;;;;5050231;28;20198;-73
2021/05/26 04:33:54;;;;;;;5.72;5.20;;;16.90;96.10;;;;;;5049038;28;20175;-72
2021/05/26 04:36:19;;;;;;;6.00;4.55;;;16.90;96.10;;;;;;5048301;28;20187;-72
2021/05/26 04:38:45;;;;;;;4.53;4.20;;;16.90;95.90;;;;;;5050294;28;20238;-72
2021/05/26 04:41:11;;;;;;;4.45;4.03;;;16.90;95.70;;;;;;5051325;28;20215;-72
2021/05/26 04:43:36;;;;;;;4.45;4.07;;;16.80;95.40;;;;;;5049922;28;20211;-73
2021/05/26 04:46:04;;;;;;;3.58;3.45;;;16.80;95.00;;;;;;5049546;28;20963;-72
2021/05/26 04:48:31;;;;;;;4.18;3.75;;;16.80;94.70;;;;;;5049201;28;20180;-73
2021/05/26 04:50:57;;;;;;;3.72;3.53;;;16.70;94.80;;;;;;5049617;28;20184;-73
2021/05/26 04:53:23;;;;;;;3.50;3.30;;;16.60;94.50;;;;;;5049460;28;20178;-73
2021/05/26 04:55:48;;;;;;;3.65;3.40;;;16.50;94.00;;;;;;5048012;28;20176;-73
2021/05/26 04:58:14;;;;;;;3.63;3.42;;;16.40;93.60;;;;;;5048286;28;20748;-72
2021/05/26 05:00:40;;;;;;;3.67;3.35;;;16.40;93.80;;;;;;5047107;28;20203;-72
2021/05/26 05:03:07;;;;;;;3.35;3.15;;;16.40;93.70;;;;;;5048636;28;20182;-71
2021/05/26 05:05:33;;;;;;;3.88;3.65;;;16.40;93.60;;;;;;5046806;28;20176;-70
2021/05/26 05:08:04;;;;;;;4.53;3.88;;;16.30;93.50;;;;;;5047407;28;20237;-72
2021/05/26 05:10:31;;;;;;;4.30;3.38;;;16.30;93.50;;;;;;5039205;28;20191;-71
2021/05/26 05:13:02;;;;;;;5.40;3.75;;;16.30;93.60;;;;;;5048898;28;20184;-71
2021/05/26 05:15:28;;;;;;;4.88;3.80;;;16.30;93.50;;;;;;5049740;28;20202;-71
2021/05/26 05:17:55;;;;;;;3.92;3.72;;;16.20;93.60;;;;;;5048918;28;20271;-72
2021/05/26 05:20:21;;;;;;;4.13;3.83;;;16.20;93.80;;;;;;5049823;28;20226;-72
2021/05/26 05:22:51;;;;;;;4.13;3.83;;;16.20;93.50;;;;;;5053173;28;20219;-73
2021/05/26 05:25:17;;;;;;;3.08;2.88;;;16.20;93.60;;;;;;5048722;28;20244;-73
2021/05/26 05:27:42;;;;;;;3.05;2.90;;;16.10;93.30;;;;;;5047568;28;20547;-70
2021/05/26 05:30:11;;;;;;;3.08;2.88;;;16.20;92.90;;;;;;5048801;28;20194;-71
2021/05/26 05:32:37;;;;;;;5.38;4.03;;;16.20;92.80;;;;;;5049513;28;20332;-70
2021/05/26 05:35:04;;;;;;;6.13;3.65;;;16.20;92.60;;;;;;5048806;28;20184;-70
2021/05/26 05:37:29;;;;;;;7.28;3.75;;;16.20;92.00;;;;;;5045338;28;20179;-72
2021/05/26 05:39:55;;;;;;;4.95;4.03;;;16.30;92.00;;;;;;5051539;28;20214;-72
2021/05/26 05:42:21;;;;;;;3.60;3.38;;;16.20;91.70;;;;;;5052927;28;20657;-71
2021/05/26 05:44:47;;;;;;;6.53;3.58;;;16.20;91.40;;;;;;5044860;28;20270;-71
2021/05/26 05:47:13;;;;;;;5.40;3.22;;;16.20;91.30;;;;;;5048753;28;20795;-73
2021/05/26 05:49:39;;;;;;;3.15;2.92;;;16.20;91.20;;;;;;5048718;28;20188;-72
2021/05/26 05:52:05;;;;;;;3.33;3.22;;;16.30;91.20;;;;;;5046189;28;20756;-72
2021/05/26 05:54:31;;;;;;;3.47;3.17;;;16.30;90.80;;;;;;5041871;28;20773;-72
2021/05/26 05:56:58;;;;;;;3.33;3.13;;;16.30;90.50;;;;;;5044604;28;20271;-72
2021/05/26 05:59:23;;;;;;;7.97;3.28;;;16.30;90.20;;;;;;5048493;28;20184;-72
2021/05/26 06:01:49;;;;;;;3.58;2.50;;;16.30;90.50;;;;;;5048758;28;20172;-72
2021/05/26 06:04:15;;;;;;;2.60;2.50;;;16.30;90.00;;;;;;5048563;28;20621;-72
2021/05/26 06:06:40;;;;;;;3.25;2.53;;;16.30;90.00;;;;;;5048336;28;20172;-72
2021/05/26 06:09:06;;;;;;;2.50;2.40;;;16.20;89.80;;;;;;5048581;28;20180;-71
2021/05/26 06:11:34;;;;;;;4.07;2.70;;;16.20;90.10;;;;;;5048312;28;20187;-72
2021/05/26 06:14:05;;;;;;;7.40;2.40;;;16.20;89.80;;;;;;5048188;28;20606;-71
2021/05/26 06:16:38;;;;;;;2.65;2.47;;;16.10;89.70;;;;;;5048256;28;20180;-72
2021/05/26 06:19:05;;;;;;;3.88;2.83;;;16.10;89.90;;;;;;5048092;28;20180;-72
2021/05/26 06:21:32;;;;;;;4.82;2.35;;;16.10;90.30;;;;;;5048187;28;20925;-71
2021/05/26 06:24:00;;;;;;;2.20;2.10;;;16.00;90.00;;;;;;5047963;28;20221;-71
2021/05/26 06:26:28;;;;;;;2.80;2.70;;;16.00;90.00;;;;;;5047833;28;20176;-72
2021/05/26 06:28:54;;;;;;;8.48;2.30;;;15.90;90.30;;;;;;5048185;28;20191;-72
2021/05/26 06:31:20;;;;;;;2.00;2.00;;;15.90;90.10;;;;;;5045478;28;20198;-72
2021/05/26 06:33:46;;;;;;;8.52;2.30;;;15.90;90.10;;;;;;5047675;28;21556;-71
2021/05/26 06:36:12;;;;;;;2.00;1.92;;;15.80;90.00;;;;;;5046176;28;20277;-71
2021/05/26 06:38:39;;;;;;;1.98;1.98;;;15.80;90.30;;;;;;5048748;28;20611;-72
2021/05/26 06:41:05;;;;;;;3.13;1.80;;;15.70;90.10;;;;;;5048374;28;20234;-72
2021/05/26 06:43:31;;;;;;;2.55;1.90;;;15.70;90.30;;;;;;5048518;28;20180;-72
2021/05/26 06:45:57;;;;;;;2.40;2.20;;;15.80;90.10;;;;;;5051531;28;20179;-72
2021/05/26 06:48:24;;;;;;;2.15;2.03;;;15.80;89.90;;;;;;5048251;28;20199;-72
2021/05/26 06:50:49;;;;;;;2.50;2.40;;;15.90;89.60;;;;;;5048484;28;20266;-72
2021/05/26 06:53:15;;;;;;;2.15;2.05;;;16.00;89.30;;;;;;5048380;28;20711;-71
2021/05/26 06:55:41;;;;;;;2.00;1.70;;;16.00;89.00;;;;;;5048684;28;20171;-72
2021/05/26 06:58:06;;;;;;;1.88;1.88;;;16.00;89.10;;;;;;5048143;28;20781;-72
2021/05/26 07:00:34;;;;;;;1.80;1.80;;;16.00;89.00;;;;;;5048355;28;20196;-71
2021/05/26 07:02:59;;;;;;;2.33;1.95;;;16.10;88.90;;;;;;5047980;28;20259;-71
2021/05/26 07:05:27;;;;;;;2.03;1.80;;;16.20;88.80;;;;;;5048372;28;20258;-72
2021/05/26 07:07:53;;;;;;;2.00;1.90;;;16.30;88.40;;;;;;5048163;28;20613;-71
2021/05/26 07:10:19;;;;;;;1.95;1.67;;;16.30;88.20;;;;;;5048415;28;20262;-71
2021/05/26 07:12:50;;;;;;;2.05;1.90;;;16.40;88.10;;;;;;5048033;28;20259;-73
2021/05/26 07:15:17;;;;;;;1.85;1.77;;;16.50;88.00;;;;;;5048703;28;20192;-71
2021/05/26 07:17:43;;;;;;;2.25;2.15;;;16.50;87.50;;;;;;5047739;28;20184;-72
2021/05/26 07:20:10;;;;;;;2.35;2.25;;;16.60;87.60;;;;;;5047732;28;20211;-72
2021/05/26 07:22:36;;;;;;;5.50;2.33;;;16.60;87.40;;;;;;5048379;28;20180;-71
2021/05/26 07:25:03;;;;;;;3.95;3.00;;;16.60;87.10;;;;;;5048065;28;20222;-72
2021/05/26 07:27:28;;;;;;;2.33;2.33;;;16.70;87.40;;;;;;5048025;28;20562;-72
2021/05/26 07:29:54;;;;;;;2.00;1.90;;;16.70;87.40;;;;;;5048021;28;20184;-72
2021/05/26 07:32:20;;;;;;;2.55;2.25;;;16.70;87.30;;;;;;5047906;28;20957;-71
2021/05/26 07:34:45;;;;;;;2.63;2.42;;;16.80;87.20;;;;;;5047643;28;20188;-72
2021/05/26 07:37:11;;;;;;;2.63;2.53;;;16.90;86.80;;;;;;5047671;28;20180;-72
2021/05/26 07:39:37;;;;;;;2.75;2.55;;;17.00;86.70;;;;;;5043407;28;20184;-71
2021/05/26 07:42:04;;;;;;;3.40;2.33;;;17.00;86.70;;;;;;5047939;28;20187;-72
2021/05/26 07:44:30;;;;;;;2.78;2.67;;;17.10;86.50;;;;;;5048013;28;20637;-73
2021/05/26 07:46:56;;;;;;;2.13;2.03;;;17.20;86.10;;;;;;5047954;28;20636;-72
2021/05/26 07:49:22;;;;;;;2.28;2.17;;;17.20;86.00;;;;;;5051358;28;20176;-73
2021/05/26 07:51:53;;;;;;;2.63;2.53;;;17.20;86.10;;;;;;5051496;28;20566;-73
2021/05/26 07:54:22;;;;;;;2.50;2.30;;;17.20;86.50;;;;;;5051377;28;20179;-72
2021/05/26 07:56:48;;;;;;;2.47;2.33;;;17.10;86.50;;;;;;5051152;28;20180;-71
2021/05/26 07:59:13;;;;;;;2.70;2.55;;;17.20;86.40;;;;;;5051238;28;20628;-71
2021/05/26 08:01:39;;;;;;;4.75;3.08;;;17.20;86.40;;;;;;5051241;28;20219;-72
2021/05/26 08:04:05;;;;;;;3.72;3.10;;;17.30;86.30;;;;;;5051077;28;20695;-72
2021/05/26 08:06:30;;;;;;;4.32;2.63;;;17.40;86.30;;;;;;5051400;28;20771;-72
2021/05/26 08:08:56;;;;;;;2.30;2.20;;;17.50;86.10;;;;;;5051321;28;20187;-72
2021/05/26 08:11:23;;;;;;;2.70;2.60;;;17.60;85.90;;;;;;5051064;28;20187;-71
2021/05/26 08:13:48;;;;;;;2.47;1.95;;;17.70;85.40;;;;;;5048703;28;20218;-73
2021/05/26 08:16:14;;;;;;;2.58;2.25;;;17.80;85.40;;;;;;5050052;28;20263;-72
2021/05/26 08:18:41;;;;;;;2.35;2.25;;;17.90;85.60;;;;;;5044795;28;20266;-72
2021/05/26 08:21:08;;;;;;;2.53;2.33;;;18.10;85.20;;;;;;5052653;28;20211;-72
2021/05/26 08:23:34;;;;;;;2.78;2.13;;;18.20;84.90;;;;;;5057567;28;20648;-71
2021/05/26 08:26:00;;;;;;;2.08;2.03;;;18.40;84.00;;;;;;5049219;28;20214;-73
2021/05/26 08:28:26;;;;;;;6.70;2.65;;;18.60;83.70;;;;;;5050033;28;20171;-72
2021/05/26 08:30:52;;;;;;;2.20;2.10;;;18.70;83.50;;;;;;5047923;28;20191;-71
2021/05/26 08:33:18;;;;;;;2.83;2.25;;;18.90;82.90;;;;;;5053050;28;20681;-71
2021/05/26 08:35:44;;;;;;;2.33;2.17;;;19.00;82.80;;;;;;5050632;28;20261;-72
2021/05/26 08:38:09;;;;;;;2.10;2.00;;;19.20;81.80;;;;;;5054853;28;20195;-71
2021/05/26 08:40:35;;;;;;;3.20;2.25;;;19.30;81.70;;;;;;5051419;28;20221;-71
2021/05/26 08:43:02;;;;;;;3.20;2.33;;;19.50;81.80;;;;;;5048216;28;20184;-73
2021/05/26 08:45:28;;;;;;;2.22;2.13;;;19.60;80.90;;;;;;5050879;28;20233;-73
2021/05/26 08:47:56;;;;;;;1.92;1.83;;;19.70;81.10;;;;;;5051214;28;20276;-72
2021/05/26 08:50:22;;;;;;;1.80;1.70;;;19.90;81.10;;;;;;5045930;28;20318;-72
2021/05/26 08:52:48;;;;;;;2.20;2.10;;;20.10;80.90;;;;;;5047911;28;20283;-72
2021/05/26 08:55:15;;;;;;;2.42;2.33;;;20.40;79.90;;;;;;5052079;28;20198;-73
2021/05/26 08:57:41;;;;;;;3.22;2.47;;;20.60;79.10;;;;;;5050140;28;20726;-72
2021/05/26 09:00:08;;;;;;;2.67;2.22;;;20.70;78.60;;;;;;5048760;28;20885;-72
2021/05/26 09:02:34;;;;;;;2.95;2.85;;;20.80;78.10;;;;;;5049013;28;20190;-71
2021/05/26 09:05:00;;;;;;;2.22;2.22;;;20.80;77.70;;;;;;5050181;28;20589;-72
2021/05/26 09:07:29;;;;;;;2.42;2.33;;;20.90;77.80;;;;;;5054094;28;20667;-72
2021/05/26 09:10:00;;;;;;;2.78;2.58;;;20.90;78.60;;;;;;5047432;28;20183;-71
2021/05/26 09:12:43;;;;;;;3.30;2.88;;;21.10;78.20;;;;;;5053553;28;20744;-71
2021/05/26 09:15:20;;;;;;;2.50;2.40;;;21.30;78.30;;;;;;5047574;28;20205;-71
2021/05/26 09:17:57;;;;;;;2.97;2.80;;;21.50;77.70;;;;;;5050306;28;20179;-70
2021/05/26 09:20:27;;;;;;;8.35;2.97;;;21.70;77.30;;;;;;5040907;28;20215;-72
2021/05/26 09:23:12;;;;;;;3.50;3.30;;;22.00;77.10;;;;;;5046343;28;20178;-72
2021/05/26 09:25:50;;;;;;;10.93;2.97;;;22.30;77.00;;;;;;5059109;28;20182;-72
2021/05/26 09:28:23;;;;;;;3.95;3.47;;;22.50;75.90;;;;;;5049200;28;20321;-72
2021/05/26 09:30:53;;;;;;;4.50;3.47;;;22.80;75.80;;;;;;5048006;28;20184;-74
2021/05/26 09:33:38;;;;;;;4.68;3.45;;;23.10;75.40;;;;;;5047054;28;20656;-73
2021/05/26 09:36:10;;;;;;;2.90;2.80;;;23.20;74.80;;;;;;5051307;28;20269;-73
2021/05/26 09:38:49;;;;;;;3.50;3.17;;;23.40;74.50;;;;;;5046830;28;20233;-72
2021/05/26 09:41:15;;;;;;;3.90;3.60;;;23.70;74.40;;;;;;5042528;28;20211;-72
2021/05/26 09:43:55;;;;;;;3.50;3.40;;;23.80;73.80;;;;;;5046838;28;20703;-72
2021/05/26 09:46:22;;;;;;;3.72;3.63;;;24.00;73.50;;;;;;5048562;28;20622;-72
2021/05/26 09:49:08;;;;;;;4.53;4.28;;;24.30;73.60;;;;;;5053561;28;20839;-72
2021/05/26 09:51:38;;;;;;;4.38;3.85;;;24.70;72.80;;;;;;5047401;28;20680;-73
2021/05/26 09:54:20;;;;;;;3.85;3.70;;;25.00;72.00;;;;;;5047070;28;20233;-72
2021/05/26 09:56:49;;;;;;;3.92;3.72;;;25.20;71.40;;;;;;5047645;28;20262;-73
2021/05/26 09:59:15;;;;;;;3.72;3.60;;;25.30;70.90;;;;;;5048291;28;20175;-72
2021/05/26 10:01:41;;;;;;;3.40;3.20;;;25.30;70.70;;;;;;5048187;28;20215;-72
2021/05/26 10:04:07;;;;;;;5.93;3.42;;;25.30;69.80;;;;;;5048356;28;20241;-72
2021/05/26 10:06:35;;;;;;;4.18;3.88;;;25.50;70.50;;;;;;5049848;28;20206;-72
2021/05/26 10:09:01;;;;;;;3.42;3.08;;;25.50;69.80;;;;;;5053854;28;20176;-71
2021/05/26 10:11:33;;;;;;;3.90;3.55;;;25.60;70.60;;;;;;5048125;28;20204;-72
2021/05/26 10:14:11;;;;;;;3.65;3.55;;;26.00;71.30;;;;;;5046292;28;20196;-71
2021/05/26 10:16:42;;;;;;;4.22;3.83;;;26.40;69.30;;;;;;5045673;28;20274;-72
2021/05/26 10:19:09;;;;;;;3.60;3.15;;;27.00;67.70;;;;;;5046167;28;20191;-72
2021/05/26 10:21:36;;;;;;;3.60;3.30;;;27.30;66.80;;;;;;5047716;28;20756;-72
2021/05/26 10:24:06;;;;;;;3.35;3.15;;;27.80;68.00;;;;;;5047712;28;20183;-72
2021/05/26 10:26:47;;;;;;;2.90;2.80;;;28.10;66.70;;;;;;5047823;28;20183;-71
2021/05/26 10:29:38;;;;;;;3.30;3.20;;;28.20;65.30;;;;;;5049754;28;20192;-72
2021/05/26 10:32:23;;;;;;;3.08;2.97;;;28.70;64.10;;;;;;5043825;28;20207;-74
2021/05/26 10:34:52;;;;;;;3.17;3.05;;;29.30;62.40;;;;;;5043943;28;20197;-72
2021/05/26 10:37:26;;;;;;;3.45;3.35;;;29.30;63.00;;;;;;5044378;28;20192;-72
2021/05/26 10:39:53;;;;;;;3.10;2.90;;;29.40;61.70;;;;;;5044496;28;20190;-72
2021/05/26 10:42:38;;;;;;;3.17;3.08;;;29.70;62.40;;;;;;5045049;28;20183;-72
2021/05/26 10:45:06;;;;;;;2.92;2.72;;;30.20;61.40;;;;;;5048878;28;20284;-72
2021/05/26 10:47:38;;;;;;;3.40;3.30;;;30.70;61.90;;;;;;5043654;28;20184;-72
2021/05/26 10:50:14;;;;;;;3.40;3.15;;;31.30;59.70;;;;;;5044782;28;20210;-72
2021/05/26 10:52:58;;;;;;;6.95;3.25;;;32.00;58.60;;;;;;5044028;28;20175;-72
2021/05/26 10:55:45;;;;;;;3.47;3.28;;;32.70;57.30;;;;;;5044154;28;20265;-72
2021/05/26 10:58:13;;;;;;;3.67;3.50;;;33.00;56.90;;;;;;5044082;28;20210;-72
2021/05/26 11:00:42;;;;;;;3.80;3.60;;;33.10;58.20;;;;;;5044545;28;20681;-72
2021/05/26 11:03:33;;;;;;;4.82;3.08;;;33.00;58.20;;;;;;5042976;28;20302;-73
2021/05/26 11:06:12;;;;;;;3.33;3.13;;;33.10;57.10;;;;;;5045191;28;20198;-70
2021/05/26 11:08:45;;;;;;;4.00;3.58;;;33.20;57.30;;;;;;5046272;28;20179;-72
2021/05/26 11:11:23;;;;;;;3.55;3.45;;;33.20;56.80;;;;;;5047096;28;20636;-74
2021/05/26 11:14:18;;;;;;;3.65;3.35;;;33.20;56.40;;;;;;5046772;28;20194;-71
2021/05/26 11:16:47;;;;;;;5.93;3.70;;;33.50;56.10;;;;;;5023613;28;20223;-71
2021/05/26 11:19:16;;;;;;;3.67;3.47;;;33.50;56.60;;;;;;5026757;28;20176;-71
2021/05/26 11:21:58;;;;;;;3.75;3.55;;;33.30;57.90;;;;;;5030451;28;20222;-70
2021/05/26 11:24:29;;;;;;;3.85;3.30;;;32.90;57.10;;;;;;5042507;28;20614;-73
2021/05/26 11:26:55;;;;;;;3.45;3.30;;;32.70;57.10;;;;;;5031484;28;20246;-73
2021/05/26 11:29:36;;;;;;;6.82;3.50;;;32.90;58.30;;;;;;5033498;28;20188;-72
2021/05/26 11:32:09;;;;;;;5.70;3.70;;;33.30;58.00;;;;;;5030537;28;20183;-71
2021/05/26 11:34:35;;;;;;;5.40;3.65;;;33.50;56.60;;;;;;5041198;28;20194;-73
2021/05/26 11:37:02;;;;;;;3.85;3.38;;;33.50;56.40;;;;;;5033146;28;20191;-72
2021/05/26 11:39:30;;;;;;;3.65;3.38;;;33.70;56.80;;;;;;5038927;28;20589;-73
2021/05/26 11:42:17;;;;;;;4.03;3.70;;;34.00;56.20;;;;;;5030663;28;20219;-71
2021/05/26 11:44:43;;;;;;;3.13;3.03;;;34.40;56.40;;;;;;5044702;28;20681;-72
2021/05/26 11:47:10;;;;;;;3.63;3.30;;;34.80;56.80;;;;;;5031414;28;20278;-71
2021/05/26 11:49:39;;;;;;;4.07;3.88;;;35.30;56.00;;;;;;5033097;28;20198;-71
2021/05/26 11:52:07;;;;;;;3.67;3.55;;;35.80;54.30;;;;;;5044669;28;20802;-71
2021/05/26 11:54:33;;;;;;;10.43;3.70;;;36.00;53.40;;;;;;5054745;28;20197;-72
2021/05/26 11:57:07;;;;;;;3.83;3.70;;;36.40;52.50;;;;;;5053527;28;20591;-71
2021/05/26 11:59:33;;;;;;;7.22;3.97;;;36.70;51.90;;;;;;5052877;28;20241;-71
2021/05/26 12:01:59;;;;;;;5.75;3.38;;;37.10;53.50;;;;;;5060591;28;20924;-71
2021/05/26 12:04:25;;;;;;;3.50;3.17;;;37.20;52.20;;;;;;5053663;28;20175;-72
2021/05/26 12:06:52;;;;;;;4.15;3.22;;;37.60;54.00;;;;;;5052276;28;20567;-72
2021/05/26 12:09:28;;;;;;;3.45;3.22;;;37.90;52.20;;;;;;5052691;28;20265;-71
2021/05/26 12:11:54;;;;;;;3.40;3.30;;;38.30;51.30;;;;;;5059154;28;20186;-71
2021/05/26 12:14:31;;;;;;;3.70;3.47;;;38.40;51.50;;;;;;5057079;28;20198;-72
2021/05/26 12:16:59;;;;;;;4.63;3.83;;;38.20;50.00;;;;;;5052810;28;20186;-71
2021/05/26 12:19:34;;;;;;;4.50;4.20;;;38.00;52.50;;;;;;5051816;28;20630;-71
2021/05/26 12:22:15;;;;;;;3.60;3.40;;;37.50;52.30;;;;;;5051666;28;20286;-71
2021/05/26 12:24:49;;;;;;;4.10;3.95;;;37.20;52.70;;;;;;5053046;28;20175;-72
2021/05/26 12:27:30;;;;;;;4.35;4.07;;;36.90;52.40;;;;;;5052165;28;20344;-71
2021/05/26 12:29:55;;;;;;;4.25;4.05;;;36.90;52.00;;;;;;5045700;28;20174;-71
2021/05/26 12:32:25;;;;;;;5.40;5.00;;;37.20;53.10;;;;;;5062029;28;20197;-72
2021/05/26 12:35:00;;;;;;;4.78;4.30;;;37.20;51.60;;;;;;5053588;28;20187;-72
2021/05/26 12:37:40;;;;;;;4.72;4.45;;;37.00;52.40;;;;;;5056586;28;20258;-71
2021/05/26 12:40:06;;;;;;;4.90;4.70;;;36.70;52.60;;;;;;5052012;28;20737;-74
2021/05/26 12:42:37;;;;;;;5.70;4.82;;;36.30;54.20;;;;;;5048077;28;20284;-71
2021/05/26 12:45:27;;;;;;;5.20;5.00;;;35.70;54.00;;;;;;5046135;28;20183;-73
2021/05/26 12:47:54;;;;;;;4.88;4.50;;;35.20;54.60;;;;;;5042929;28;20174;-70
2021/05/26 12:50:24;;;;;;;7.13;4.82;;;34.70;56.60;;;;;;5050102;28;20220;-71
2021/05/26 12:52:52;;;;;;;4.95;4.65;;;34.80;57.70;;;;;;5049785;28;20598;-72
2021/05/26 12:55:19;;;;;;;7.60;4.32;;;35.00;56.10;;;;;;5049793;28;20178;-72
2021/05/26 12:57:46;;;;;;;4.45;4.25;;;34.90;55.70;;;;;;5049996;28;20228;-71
2021/05/26 13:00:20;;;;;;;4.18;3.95;;;34.60;55.40;;;;;;5049959;28;20349;-72
2021/05/26 13:02:47;;;;;;;4.15;4.05;;;34.70;56.40;;;;;;5049746;28;20680;-71
2021/05/26 13:05:15;;;;;;;4.97;4.68;;;35.30;55.40;;;;;;5049808;28;20183;-71
2021/05/26 13:07:48;;;;;;;4.88;4.30;;;36.00;55.50;;;;;;5048246;28;20960;-71
2021/05/26 13:10:25;;;;;;;5.80;4.57;;;36.20;55.60;;;;;;5049595;28;20174;-72
2021/05/26 13:12:51;;;;;;;4.65;4.35;;;35.80;55.40;;;;;;5049381;28;20187;-72
2021/05/26 13:15:35;;;;;;;5.13;4.85;;;35.30;56.60;;;;;;5048764;28;20189;-71
2021/05/26 13:18:01;;;;;;;6.85;5.35;;;34.70;57.00;;;;;;5048207;28;20175;-71
2021/05/26 13:20:35;;;;;;;5.85;5.32;;;34.00;58.20;;;;;;5048924;28;20276;-71
2021/05/26 13:23:03;;;;;;;5.38;5.00;;;33.50;59.50;;;;;;5050186;28;20723;-71
2021/05/26 13:25:31;;;;;;;4.95;4.50;;;33.00;59.80;;;;;;5047728;28;20182;-71
2021/05/26 13:27:57;;;;;;;5.22;5.03;;;32.80;59.40;;;;;;5050887;28;20584;-71
2021/05/26 13:30:29;;;;;;;6.18;5.68;;;32.50;59.90;;;;;;5052422;28;20186;-71
2021/05/26 13:32:56;;;;;;;5.80;5.45;;;32.30;60.30;;;;;;5043832;28;20548;-72
2021/05/26 13:35:23;;;;;;;8.18;5.35;;;32.30;60.70;;;;;;5045997;28;20187;-72
2021/05/26 13:37:49;;;;;;;5.47;5.07;;;32.30;59.70;;;;;;5048275;28;20202;-72
2021/05/26 13:40:15;;;;;;;5.32;4.78;;;32.20;60.60;;;;;;5046679;28;20712;-72
2021/05/26 13:42:41;;;;;;;6.93;5.43;;;32.10;61.10;;;;;;5044107;28;20211;-72
2021/05/26 13:45:09;;;;;;;5.13;4.93;;;31.90;61.00;;;;;;5046424;28;20691;-73
2021/05/26 13:47:35;;;;;;;5.43;5.22;;;31.70;60.90;;;;;;5047122;28;20213;-72
2021/05/26 13:50:01;;;;;;;6.47;5.90;;;31.50;61.60;;;;;;5049966;28;20212;-73
2021/05/26 13:52:27;;;;;;;5.43;5.05;;;31.20;61.90;;;;;;5051837;28;20199;-72
2021/05/26 13:54:54;;;;;;;4.80;4.38;;;30.90;62.40;;;;;;5047595;28;20177;-72
2021/05/26 13:57:20;;;;;;;4.82;4.43;;;30.70;63.10;;;;;;5049458;28;20180;-72
2021/05/26 13:59:46;;;;;;;6.05;4.28;;;30.50;62.90;;;;;;5049492;28;20187;-72
2021/05/26 14:02:11;;;;;;;4.97;4.53;;;30.30;62.80;;;;;;5049340;28;20201;-71
2021/05/26 14:04:37;;;;;;;4.80;4.35;;;30.10;63.40;;;;;;5044114;28;20198;-71
2021/05/26 14:07:03;;;;;;;4.13;3.83;;;29.80;64.20;;;;;;5050773;28;20184;-71
2021/05/26 14:09:28;;;;;;;5.00;4.70;;;29.60;64.50;;;;;;5047335;28;20179;-73
2021/05/26 14:11:54;;;;;;;4.57;4.28;;;29.50;65.20;;;;;;5051113;28;20171;-73
2021/05/26 14:14:21;;;;;;;5.38;4.07;;;29.40;65.80;;;;;;5048731;28;20735;-71
2021/05/26 14:16:47;;;;;;;3.92;3.83;;;29.30;65.30;;;;;;5049680;28;20244;-71